Time;durP1;ratioP1;P1;durP2;ratioP2;P2;SDS_P1;SDS_P2;PMS_P1;PMS_P2;Temp;Humidity;BMP_temperature;BMP_pressure;BME280_temperature;BME280_humidity;BME280_pressure;Samples;Min_cycle;Max_cycle;Signal;HPM_P1;HPM_P2
2023/06/21 00:01:35;;;;;;;8.27;7.77;;;24.20;99.90;;;;;;5034917;28;20448;-60
2023/06/21 00:04:01;;;;;;;9.27;8.57;;;24.10;99.90;;;;;;5034494;28;20402;-60
2023/06/21 00:06:31;;;;;;;8.13;7.63;;;24.10;99.90;;;;;;5045411;28;20581;-60
2023/06/21 00:08:57;;;;;;;8.60;8.00;;;24.20;99.90;;;;;;5047178;28;20425;-60
2023/06/21 00:11:23;;;;;;;8.50;7.83;;;24.10;99.90;;;;;;5038711;28;20475;-60
2023/06/21 00:13:52;;;;;;;8.70;8.10;;;24.10;99.90;;;;;;5034492;28;20421;-60
2023/06/21 00:16:18;;;;;;;9.07;8.40;;;24.10;99.90;;;;;;5033703;28;20417;-60
2023/06/21 00:18:44;;;;;;;9.37;8.60;;;24.10;99.90;;;;;;5034691;28;20409;-60
2023/06/21 00:21:09;;;;;;;8.93;8.40;;;24.00;99.90;;;;;;5035198;28;20448;-60
2023/06/21 00:23:35;;;;;;;9.07;8.47;;;24.00;99.90;;;;;;5034157;28;20174;-60
2023/06/21 00:26:01;;;;;;;8.30;7.80;;;24.00;99.90;;;;;;5033893;28;20178;-60
2023/06/21 00:28:28;;;;;;;8.53;7.93;;;23.90;99.90;;;;;;5034628;28;20266;-60
2023/06/21 00:30:54;;;;;;;8.43;7.83;;;23.90;99.90;;;;;;5048181;28;20499;-60
2023/06/21 00:33:20;;;;;;;7.87;7.37;;;23.90;99.90;;;;;;5047781;28;20262;-60
2023/06/21 00:35:45;;;;;;;8.10;7.50;;;23.90;99.90;;;;;;5034645;28;20196;-60
2023/06/21 00:38:12;;;;;;;7.93;7.33;;;23.90;99.90;;;;;;5033334;28;20170;-60
2023/06/21 00:40:41;;;;;;;8.67;7.70;;;23.80;99.90;;;;;;5035675;28;20602;-60
2023/06/21 00:43:06;;;;;;;7.93;7.43;;;23.80;99.90;;;;;;5053606;28;20536;-60
2023/06/21 00:45:40;;;;;;;8.23;7.63;;;23.80;99.90;;;;;;5042909;28;20497;-60
2023/06/21 00:48:06;;;;;;;8.60;8.00;;;23.70;99.90;;;;;;5035486;28;20171;-60
2023/06/21 00:50:32;;;;;;;8.03;7.43;;;23.70;99.90;;;;;;5053919;28;20420;-60
2023/06/21 00:52:58;;;;;;;7.67;7.17;;;23.60;99.90;;;;;;5050167;28;20420;-60
2023/06/21 00:55:24;;;;;;;7.70;7.23;;;23.60;99.90;;;;;;5053410;28;20162;-60
2023/06/21 00:57:51;;;;;;;7.37;6.67;;;23.50;99.90;;;;;;5041771;28;20438;-60
2023/06/21 01:00:20;;;;;;;7.53;6.93;;;23.50;99.90;;;;;;5048189;28;20280;-60
2023/06/21 01:02:47;;;;;;;7.03;6.63;;;23.50;99.90;;;;;;5033766;28;20898;-60
2023/06/21 01:05:16;;;;;;;7.13;6.60;;;23.50;99.90;;;;;;5034157;28;20401;-60
2023/06/21 01:08:03;;;;;;;7.20;6.70;;;23.40;99.90;;;;;;5033721;28;20511;-60
2023/06/21 01:10:43;;;;;;;7.10;6.67;;;23.40;99.90;;;;;;5033894;28;20478;-60
2023/06/21 01:13:41;;;;;;;8.00;7.30;;;23.40;99.90;;;;;;5048903;28;20758;-60
2023/06/21 01:16:12;;;;;;;7.30;6.90;;;23.30;99.90;;;;;;4993570;28;20429;-60
2023/06/21 01:18:40;;;;;;;6.93;6.30;;;23.30;99.90;;;;;;5033349;28;20408;-60
2023/06/21 01:21:09;;;;;;;7.37;6.87;;;23.20;99.90;;;;;;5033117;28;20540;-60
2023/06/21 01:23:59;;;;;;;8.00;7.40;;;23.20;99.90;;;;;;5033243;28;20417;-60
2023/06/21 01:26:29;;;;;;;6.70;6.30;;;23.20;99.90;;;;;;5035556;28;20988;-60
2023/06/21 01:29:16;;;;;;;7.80;7.20;;;23.20;99.90;;;;;;5052403;28;20428;-60
2023/06/21 01:31:45;;;;;;;7.10;6.50;;;23.20;99.90;;;;;;5033561;28;20492;-60
2023/06/21 01:34:12;;;;;;;7.20;6.70;;;23.20;99.90;;;;;;5032011;28;20944;-60
2023/06/21 01:36:39;;;;;;;7.77;7.17;;;23.20;99.90;;;;;;5033098;28;20432;-60
2023/06/21 01:39:09;;;;;;;7.90;6.70;;;23.10;99.90;;;;;;5026497;28;20468;-60
2023/06/21 01:41:35;;;;;;;7.03;6.57;;;23.10;99.90;;;;;;5058261;28;20973;-60
2023/06/21 01:44:13;;;;;;;7.00;6.50;;;23.10;99.90;;;;;;5072946;28;20828;-60
2023/06/21 01:46:39;;;;;;;6.37;5.97;;;23.10;99.90;;;;;;5053306;28;20419;-60
2023/06/21 01:49:08;;;;;;;6.50;6.10;;;23.10;99.90;;;;;;5062970;28;20930;-60
2023/06/21 01:51:39;;;;;;;5.97;5.53;;;23.00;99.90;;;;;;5051405;28;20420;-60
2023/06/21 01:54:06;;;;;;;6.30;5.80;;;22.90;99.90;;;;;;5051307;28;20515;-60
2023/06/21 01:56:34;;;;;;;6.30;5.80;;;22.90;99.90;;;;;;5059976;28;20470;-60
2023/06/21 01:59:01;;;;;;;6.00;5.40;;;22.90;99.90;;;;;;5058733;28;20419;-60
2023/06/21 02:01:28;;;;;;;5.70;5.30;;;22.90;99.90;;;;;;5051491;28;21087;-60
2023/06/21 02:03:59;;;;;;;6.30;5.80;;;22.90;99.90;;;;;;5053010;28;20416;-60
2023/06/21 02:06:30;;;;;;;5.90;5.50;;;22.90;99.90;;;;;;5051754;28;20435;-60
2023/06/21 02:09:00;;;;;;;5.73;5.33;;;22.90;99.90;;;;;;5053295;28;20477;-60
2023/06/21 02:11:29;;;;;;;5.63;5.23;;;22.90;99.90;;;;;;5050522;28;20969;-60
2023/06/21 02:13:55;;;;;;;6.17;5.67;;;22.90;99.90;;;;;;5064445;28;20419;-60
2023/06/21 02:16:25;;;;;;;5.20;4.90;;;22.90;99.90;;;;;;5065878;28;20443;-60
2023/06/21 02:18:50;;;;;;;5.20;4.80;;;22.90;99.90;;;;;;5052650;28;20166;-60
2023/06/21 02:21:16;;;;;;;5.70;5.30;;;22.90;99.90;;;;;;5051404;28;20459;-60
2023/06/21 02:23:43;;;;;;;5.60;5.30;;;22.90;99.90;;;;;;5051993;28;20173;-60
2023/06/21 02:26:11;;;;;;;5.80;5.37;;;22.90;99.90;;;;;;5051414;28;20421;-60
2023/06/21 02:28:37;;;;;;;5.73;5.33;;;22.90;99.90;;;;;;5052407;28;20408;-60
2023/06/21 02:31:03;;;;;;;5.30;5.00;;;22.90;99.90;;;;;;5050799;28;20470;-60
2023/06/21 02:33:31;;;;;;;6.00;5.63;;;22.90;99.90;;;;;;5053713;28;20802;-60
2023/06/21 02:35:57;;;;;;;5.60;5.30;;;22.90;99.90;;;;;;5052405;28;20404;-60
2023/06/21 02:38:25;;;;;;;6.37;5.87;;;22.80;99.90;;;;;;5051068;28;20434;-59
2023/06/21 02:40:54;;;;;;;6.03;5.53;;;22.80;99.90;;;;;;5034002;28;20461;-60
2023/06/21 02:43:20;;;;;;;6.43;5.93;;;22.70;99.90;;;;;;5051498;28;20492;-60
2023/06/21 02:45:46;;;;;;;6.10;5.70;;;22.70;99.90;;;;;;5034180;28;20497;-60
2023/06/21 02:48:12;;;;;;;6.20;5.80;;;22.70;99.90;;;;;;5039812;28;20471;-60
2023/06/21 02:50:38;;;;;;;6.47;6.07;;;22.70;99.90;;;;;;5032605;28;20835;-60
2023/06/21 02:53:04;;;;;;;6.00;5.60;;;22.70;99.90;;;;;;5031803;28;20517;-60
2023/06/21 02:55:30;;;;;;;6.20;5.80;;;22.70;99.90;;;;;;5030851;28;20209;-60
2023/06/21 02:57:55;;;;;;;6.20;5.80;;;22.60;99.90;;;;;;5032394;28;20232;-60
2023/06/21 03:00:29;;;;;;;6.23;5.83;;;22.50;99.90;;;;;;5030654;28;20247;-60
2023/06/21 03:03:00;;;;;;;6.83;6.33;;;22.50;99.90;;;;;;5039261;28;20579;-60
2023/06/21 03:05:29;;;;;;;6.40;5.90;;;22.50;99.90;;;;;;5048497;28;20455;-60
2023/06/21 03:07:55;;;;;;;5.77;5.37;;;22.50;99.90;;;;;;5049996;28;20887;-60
2023/06/21 03:10:21;;;;;;;6.03;5.63;;;22.50;99.90;;;;;;5051395;28;20459;-60
2023/06/21 03:12:47;;;;;;;6.00;5.60;;;22.50;99.90;;;;;;5032199;28;20912;-60
2023/06/21 03:15:13;;;;;;;6.20;5.80;;;22.40;99.90;;;;;;5014125;28;20417;-60
2023/06/21 03:17:40;;;;;;;5.90;5.50;;;22.40;99.90;;;;;;5032222;28;20873;-60
2023/06/21 03:20:12;;;;;;;6.23;5.83;;;22.40;99.90;;;;;;5052214;28;20550;-60
2023/06/21 03:22:41;;;;;;;7.00;6.03;;;22.30;99.90;;;;;;5040362;28;20460;-60
2023/06/21 03:25:09;;;;;;;6.80;6.40;;;22.30;99.90;;;;;;5031984;28;20397;-60
2023/06/21 03:27:35;;;;;;;6.90;6.20;;;22.30;99.90;;;;;;5030797;28;20889;-60
2023/06/21 03:30:06;;;;;;;6.97;6.47;;;22.30;99.90;;;;;;5031867;28;20500;-60
2023/06/21 03:32:31;;;;;;;6.90;6.30;;;22.20;99.90;;;;;;5041912;28;21048;-60
2023/06/21 03:34:59;;;;;;;6.43;5.93;;;22.20;99.90;;;;;;5032384;28;20401;-60
2023/06/21 03:37:27;;;;;;;5.80;5.50;;;22.10;99.90;;;;;;5030508;28;20181;-60
2023/06/21 03:39:53;;;;;;;7.37;6.87;;;22.10;99.90;;;;;;5036001;28;20460;-60
2023/06/21 03:42:19;;;;;;;6.93;6.50;;;22.10;99.90;;;;;;5031043;28;20915;-60
2023/06/21 03:44:46;;;;;;;7.80;7.20;;;22.00;99.90;;;;;;5035072;28;20420;-60
2023/06/21 03:47:12;;;;;;;7.10;6.50;;;22.00;99.90;;;;;;5051467;28;20410;-60
2023/06/21 03:49:40;;;;;;;7.27;6.77;;;22.00;99.90;;;;;;5049103;28;20173;-60
2023/06/21 03:52:06;;;;;;;6.47;5.97;;;22.00;99.90;;;;;;5036011;28;20190;-60
2023/06/21 03:54:32;;;;;;;7.07;6.57;;;22.00;99.90;;;;;;5020565;28;20423;-60
2023/06/21 03:56:58;;;;;;;7.00;6.40;;;22.00;99.90;;;;;;5031828;28;20409;-60
2023/06/21 03:59:24;;;;;;;7.40;6.70;;;22.00;99.90;;;;;;5032415;28;20264;-60
2023/06/21 04:01:49;;;;;;;7.23;6.73;;;22.00;99.90;;;;;;5042442;28;20237;-60
2023/06/21 04:04:16;;;;;;;6.93;6.33;;;22.00;99.90;;;;;;5041386;28;20185;-60
2023/06/21 04:06:41;;;;;;;6.87;6.27;;;22.00;99.90;;;;;;5036625;28;20507;-63
2023/06/21 04:09:07;;;;;;;7.97;7.40;;;22.00;99.90;;;;;;5035228;28;20185;-60
2023/06/21 04:11:33;;;;;;;7.27;6.67;;;22.00;99.90;;;;;;5035256;28;20761;-59
2023/06/21 04:13:58;;;;;;;8.20;7.60;;;22.00;99.90;;;;;;5036350;28;20619;-61
2023/06/21 04:16:26;;;;;;;7.80;7.20;;;22.00;99.90;;;;;;5034673;28;20253;-61
2023/06/21 04:18:51;;;;;;;9.20;7.60;;;22.10;99.90;;;;;;5017770;28;20171;-60
2023/06/21 04:21:17;;;;;;;8.33;7.60;;;22.10;99.90;;;;;;5038381;28;20510;-60
2023/06/21 04:23:43;;;;;;;8.77;7.90;;;22.10;99.90;;;;;;5036151;28;20183;-61
2023/06/21 04:26:12;;;;;;;8.50;7.90;;;22.10;99.90;;;;;;5046926;28;20178;-61
2023/06/21 04:28:40;;;;;;;7.80;7.30;;;22.20;99.90;;;;;;5034329;28;20425;-61
2023/06/21 04:31:06;;;;;;;7.97;7.27;;;22.20;99.90;;;;;;5039018;28;20774;-61
2023/06/21 04:33:31;;;;;;;25.73;18.57;;;22.30;99.90;;;;;;5049364;28;20424;-61
2023/06/21 04:35:57;;;;;;;29.47;25.93;;;22.50;99.90;;;;;;5054613;28;20400;-61
2023/06/21 04:38:23;;;;;;;8.10;7.40;;;22.60;99.90;;;;;;5052861;28;20174;-62
2023/06/21 04:40:52;;;;;;;8.10;7.40;;;22.80;99.90;;;;;;5055030;28;20198;-63
2023/06/21 04:43:18;;;;;;;8.20;7.53;;;22.90;99.90;;;;;;5044596;28;20170;-62
2023/06/21 04:45:48;;;;;;;7.17;6.67;;;23.00;99.90;;;;;;5039889;28;20508;-63
2023/06/21 04:48:14;;;;;;;22.50;19.03;;;23.10;99.90;;;;;;5044690;28;20415;-63
2023/06/21 04:50:45;;;;;;;11.23;10.20;;;23.20;99.90;;;;;;5041653;28;20896;-62
2023/06/21 04:53:13;;;;;;;9.33;8.43;;;23.30;99.90;;;;;;5053643;28;20177;-63
2023/06/21 04:55:43;;;;;;;9.70;8.70;;;23.40;99.90;;;;;;5035485;28;20409;-64
2023/06/21 04:58:09;;;;;;;17.67;14.93;;;23.40;99.90;;;;;;5034750;28;20920;-64
2023/06/21 05:00:36;;;;;;;15.20;13.60;;;23.50;99.90;;;;;;5046941;28;20547;-65
2023/06/21 05:03:02;;;;;;;8.50;7.70;;;23.60;99.90;;;;;;5043132;28;20965;-62
2023/06/21 05:05:28;;;;;;;12.70;11.40;;;23.60;99.90;;;;;;5039225;28;20796;-66
2023/06/21 05:07:54;;;;;;;10.07;9.13;;;23.70;99.90;;;;;;5021475;28;20401;-63
2023/06/21 05:10:20;;;;;;;8.73;7.93;;;23.50;99.90;;;;;;5038997;28;20179;-62
2023/06/21 05:12:46;;;;;;;7.97;7.30;;;23.60;99.90;;;;;;5040665;28;20556;-62
2023/06/21 05:15:11;;;;;;;13.93;12.20;;;23.70;99.90;;;;;;5051044;28;20232;-65
2023/06/21 05:17:37;;;;;;;9.20;8.20;;;23.70;99.90;;;;;;5041390;28;20213;-65
2023/06/21 05:20:04;;;;;;;8.60;7.87;;;23.70;99.90;;;;;;5039108;28;20617;-65
2023/06/21 05:22:30;;;;;;;18.70;15.90;;;23.70;99.90;;;;;;5044547;28;20206;-63
2023/06/21 05:24:56;;;;;;;8.60;7.90;;;23.80;99.90;;;;;;5050966;28;20506;-62
2023/06/21 05:27:22;;;;;;;8.37;7.77;;;23.80;99.90;;;;;;5052005;28;20481;-61
2023/06/21 05:29:48;;;;;;;7.70;7.20;;;23.80;99.90;;;;;;5050864;28;20420;-62
2023/06/21 05:32:14;;;;;;;9.37;8.47;;;23.80;99.90;;;;;;5053549;28;20629;-62
2023/06/21 05:34:39;;;;;;;7.87;7.27;;;23.90;99.90;;;;;;5052727;28;20697;-62
2023/06/21 05:37:05;;;;;;;8.67;7.97;;;24.00;99.90;;;;;;5037681;28;20626;-62
2023/06/21 05:39:31;;;;;;;9.97;9.17;;;24.00;99.90;;;;;;5032526;28;20228;-62
2023/06/21 05:41:57;;;;;;;9.30;8.70;;;24.10;99.90;;;;;;5038391;28;20190;-62
2023/06/21 05:44:23;;;;;;;11.63;10.63;;;24.10;99.90;;;;;;5046124;28;20525;-61
2023/06/21 05:46:48;;;;;;;9.13;8.43;;;24.10;99.90;;;;;;5045323;28;20459;-61
2023/06/21 05:49:14;;;;;;;9.40;8.70;;;24.10;99.90;;;;;;5046574;28;20538;-62
2023/06/21 05:51:40;;;;;;;8.63;7.93;;;24.10;99.90;;;;;;5042850;28;20181;-62
2023/06/21 05:54:06;;;;;;;9.60;8.77;;;24.10;99.90;;;;;;5047315;28;20617;-62
2023/06/21 05:56:36;;;;;;;12.93;11.83;;;24.20;99.90;;;;;;5046160;28;20232;-62
2023/06/21 05:59:03;;;;;;;11.00;9.90;;;24.20;99.90;;;;;;5033232;28;20167;-62
2023/06/21 06:01:29;;;;;;;9.70;8.90;;;24.30;99.90;;;;;;5032128;28;20445;-61
2023/06/21 06:03:55;;;;;;;9.20;8.60;;;24.30;99.90;;;;;;5015350;28;20435;-62
2023/06/21 06:06:20;;;;;;;9.03;8.43;;;24.30;99.90;;;;;;5032993;28;20178;-61
2023/06/21 06:08:46;;;;;;;9.40;8.60;;;24.40;99.90;;;;;;5043287;28;20197;-62
2023/06/21 06:11:12;;;;;;;9.40;8.57;;;24.40;99.90;;;;;;5033186;28;20320;-63
2023/06/21 06:13:38;;;;;;;9.47;8.67;;;24.30;99.90;;;;;;5048936;28;20629;-62
2023/06/21 06:16:04;;;;;;;8.30;7.70;;;24.20;99.90;;;;;;5038223;28;20214;-62
2023/06/21 06:18:29;;;;;;;8.83;8.03;;;24.30;99.90;;;;;;5032838;28;20413;-62
2023/06/21 06:20:55;;;;;;;10.07;9.27;;;24.30;99.90;;;;;;5031725;28;20683;-62
2023/06/21 06:23:21;;;;;;;10.20;9.50;;;24.30;99.90;;;;;;5046849;28;20174;-61
2023/06/21 06:25:47;;;;;;;21.43;19.53;;;24.30;99.90;;;;;;5032724;28;20257;-62
2023/06/21 06:28:12;;;;;;;15.70;14.30;;;24.30;99.90;;;;;;5038724;28;20409;-62
2023/06/21 06:30:38;;;;;;;11.00;10.10;;;24.40;99.90;;;;;;5032117;28;20276;-61
2023/06/21 06:33:04;;;;;;;9.97;9.17;;;24.40;99.90;;;;;;5046078;28;20169;-62
2023/06/21 06:35:30;;;;;;;9.03;8.43;;;24.40;99.90;;;;;;5034423;28;20178;-62
2023/06/21 06:37:55;;;;;;;9.90;9.10;;;24.50;99.90;;;;;;5034034;28;20215;-62
2023/06/21 06:40:22;;;;;;;9.07;8.23;;;24.50;99.90;;;;;;5049186;28;20619;-61
2023/06/21 06:42:48;;;;;;;9.50;8.80;;;24.50;99.90;;;;;;5052308;28;20182;-61
2023/06/21 06:45:14;;;;;;;10.50;9.53;;;24.60;99.90;;;;;;5053405;28;20416;-62
2023/06/21 06:47:40;;;;;;;10.33;9.53;;;24.60;99.90;;;;;;5054609;28;20269;-62
2023/06/21 06:50:07;;;;;;;9.90;9.10;;;24.50;99.90;;;;;;5064625;28;20173;-62
2023/06/21 06:52:32;;;;;;;11.53;10.63;;;24.50;99.90;;;;;;5063471;28;20174;-62
2023/06/21 06:54:58;;;;;;;10.13;9.33;;;24.50;99.90;;;;;;5066854;28;20409;-62
2023/06/21 06:57:24;;;;;;;10.23;9.40;;;24.40;99.90;;;;;;5066052;28;20252;-61
2023/06/21 06:59:50;;;;;;;10.33;9.53;;;24.40;99.90;;;;;;5058155;28;20174;-62
2023/06/21 07:02:16;;;;;;;10.33;9.53;;;24.40;99.90;;;;;;5058951;28;20216;-62
2023/06/21 07:04:41;;;;;;;11.10;10.33;;;24.50;99.90;;;;;;5050823;28;20512;-62
2023/06/21 07:07:07;;;;;;;11.43;10.43;;;24.60;99.90;;;;;;5050819;28;20419;-62
2023/06/21 07:09:33;;;;;;;11.90;10.90;;;24.60;99.90;;;;;;5051114;28;20226;-61
2023/06/21 07:12:01;;;;;;;12.07;11.07;;;24.70;99.90;;;;;;5055499;28;21158;-62
2023/06/21 07:14:27;;;;;;;13.10;12.20;;;24.70;99.90;;;;;;5065372;28;20438;-61
2023/06/21 07:16:53;;;;;;;12.00;11.00;;;24.70;99.90;;;;;;5071708;28;20445;-62
2023/06/21 07:19:19;;;;;;;11.57;10.70;;;24.70;99.90;;;;;;5063612;28;20451;-62
2023/06/21 07:21:45;;;;;;;9.73;9.03;;;24.80;99.90;;;;;;5059616;28;20258;-62
2023/06/21 07:24:11;;;;;;;11.70;10.80;;;24.90;99.90;;;;;;5068106;28;20181;-62
2023/06/21 07:26:38;;;;;;;12.17;11.37;;;24.90;99.90;;;;;;5055888;28;20254;-62
2023/06/21 07:29:04;;;;;;;12.27;11.30;;;24.90;99.90;;;;;;5070736;28;20802;-62
2023/06/21 07:31:32;;;;;;;11.57;10.80;;;25.00;99.90;;;;;;5069507;28;20454;-61
2023/06/21 07:33:58;;;;;;;10.33;9.43;;;24.90;99.90;;;;;;5066219;28;20184;-63
2023/06/21 07:36:25;;;;;;;10.60;9.90;;;25.00;99.90;;;;;;5066160;28;20423;-63
2023/06/21 07:38:51;;;;;;;12.10;11.20;;;24.80;99.90;;;;;;5050279;28;20471;-63
2023/06/21 07:41:17;;;;;;;11.10;10.33;;;24.60;99.90;;;;;;5043657;28;20452;-67
2023/06/21 07:43:43;;;;;;;12.27;11.37;;;24.60;99.90;;;;;;5050669;28;20177;-63
2023/06/21 07:46:09;;;;;;;11.30;10.40;;;24.70;99.90;;;;;;5043497;28;20413;-61
2023/06/21 07:48:34;;;;;;;11.17;10.37;;;24.70;99.90;;;;;;5039802;28;20190;-62
2023/06/21 07:51:01;;;;;;;11.70;10.70;;;24.80;99.90;;;;;;5045251;28;20794;-63
2023/06/21 07:53:26;;;;;;;17.30;12.50;;;24.90;99.90;;;;;;5037327;28;20174;-61
2023/06/21 07:55:52;;;;;;;11.30;10.40;;;25.00;99.90;;;;;;5054946;28;20403;-63
2023/06/21 07:58:18;;;;;;;11.00;10.10;;;25.10;99.90;;;;;;5055451;28;20174;-63
2023/06/21 08:00:44;;;;;;;11.60;10.70;;;25.10;99.90;;;;;;5054673;28;20203;-63
2023/06/21 08:03:09;;;;;;;12.07;11.17;;;25.00;99.90;;;;;;5055322;28;20208;-63
2023/06/21 08:05:35;;;;;;;12.60;11.50;;;25.00;99.90;;;;;;5054620;28;20174;-63
2023/06/21 08:08:01;;;;;;;13.00;11.90;;;25.00;99.90;;;;;;5055262;28;20178;-63
2023/06/21 08:10:28;;;;;;;11.87;10.87;;;24.80;99.90;;;;;;5055126;28;20609;-63
2023/06/21 08:12:53;;;;;;;12.53;11.40;;;24.90;99.90;;;;;;5054654;28;20165;-63
2023/06/21 08:15:19;;;;;;;12.90;11.60;;;25.10;99.90;;;;;;5036958;28;20455;-62
2023/06/21 08:17:45;;;;;;;12.47;11.17;;;25.10;99.90;;;;;;5054028;28;20178;-62
2023/06/21 08:20:11;;;;;;;14.97;13.43;;;25.20;99.90;;;;;;5051919;28;20170;-62
2023/06/21 08:22:37;;;;;;;14.07;13.00;;;25.30;99.90;;;;;;5048630;28;20178;-62
2023/06/21 08:25:03;;;;;;;13.83;12.63;;;25.20;99.90;;;;;;5037166;28;20871;-63
2023/06/21 08:27:28;;;;;;;13.30;12.10;;;25.30;99.90;;;;;;5054521;28;20166;-61
2023/06/21 08:29:54;;;;;;;13.07;12.07;;;25.50;99.90;;;;;;5053856;28;20416;-63
2023/06/21 08:32:20;;;;;;;13.30;11.90;;;25.70;99.90;;;;;;5054777;28;20638;-63
2023/06/21 08:34:46;;;;;;;13.73;12.63;;;25.60;99.90;;;;;;5053866;28;20255;-63
2023/06/21 08:37:12;;;;;;;13.00;11.97;;;25.70;99.90;;;;;;5054702;28;20173;-63
2023/06/21 08:39:38;;;;;;;13.70;12.47;;;25.80;99.90;;;;;;5053152;28;21001;-62
2023/06/21 08:42:04;;;;;;;13.70;12.53;;;25.80;99.90;;;;;;5036693;28;20205;-63
2023/06/21 08:44:30;;;;;;;13.10;12.00;;;25.80;99.90;;;;;;5054556;28;20276;-61
2023/06/21 08:46:56;;;;;;;13.40;12.40;;;25.80;99.90;;;;;;5053458;28;20410;-63
2023/06/21 08:49:26;;;;;;;12.63;11.73;;;25.80;99.90;;;;;;5053502;28;20428;-63
2023/06/21 08:51:54;;;;;;;13.80;12.77;;;25.90;99.90;;;;;;5054045;28;20412;-63
2023/06/21 08:54:27;;;;;;;14.20;13.00;;;25.90;99.90;;;;;;5054619;28;20408;-63
2023/06/21 08:57:06;;;;;;;14.47;13.37;;;26.00;99.90;;;;;;5053521;28;20575;-63
2023/06/21 08:59:43;;;;;;;15.80;14.40;;;26.00;99.90;;;;;;5053520;28;20395;-61
2023/06/21 09:02:15;;;;;;;14.50;13.10;;;26.10;99.90;;;;;;5054293;28;20436;-63
2023/06/21 09:04:47;;;;;;;15.40;13.90;;;26.20;99.90;;;;;;5053425;28;20493;-63
2023/06/21 09:07:14;;;;;;;14.53;13.33;;;26.30;99.90;;;;;;5036466;28;20381;-63
2023/06/21 09:09:43;;;;;;;14.27;13.13;;;26.50;99.90;;;;;;5053514;28;20918;-63
2023/06/21 09:12:11;;;;;;;16.10;14.90;;;26.60;99.90;;;;;;5053924;28;20491;-63
2023/06/21 09:14:39;;;;;;;15.70;14.30;;;26.70;99.90;;;;;;5053166;28;20404;-63
2023/06/21 09:17:05;;;;;;;14.17;12.87;;;26.60;99.90;;;;;;5052218;28;20464;-63
2023/06/21 09:19:31;;;;;;;14.40;13.30;;;26.70;99.90;;;;;;5053922;28;20436;-63
2023/06/21 09:21:58;;;;;;;13.03;11.83;;;26.80;99.90;;;;;;5053110;28;20924;-63
2023/06/21 09:24:24;;;;;;;12.63;11.73;;;26.90;99.90;;;;;;5053873;28;20747;-63
2023/06/21 09:26:49;;;;;;;13.83;12.80;;;27.00;99.90;;;;;;5053111;28;20388;-63
2023/06/21 09:29:16;;;;;;;13.40;12.50;;;27.10;99.90;;;;;;5051250;28;20185;-63
2023/06/21 09:31:42;;;;;;;14.33;13.10;;;27.20;99.70;;;;;;5052398;28;20238;-63
2023/06/21 09:34:08;;;;;;;12.93;11.90;;;27.30;99.90;;;;;;5053190;28;20890;-63
2023/06/21 09:36:33;;;;;;;13.40;12.30;;;27.40;98.40;;;;;;5053386;28;20404;-61
2023/06/21 09:39:07;;;;;;;13.47;12.33;;;27.60;97.90;;;;;;5052924;28;20613;-63
2023/06/21 09:41:33;;;;;;;12.90;11.90;;;27.70;97.10;;;;;;5053425;28;20220;-62
2023/06/21 09:43:59;;;;;;;12.67;11.63;;;27.80;96.80;;;;;;5052569;28;20880;-63
2023/06/21 09:46:25;;;;;;;11.17;10.33;;;27.90;95.90;;;;;;5053238;28;20170;-63
2023/06/21 09:48:50;;;;;;;11.30;10.50;;;28.00;95.10;;;;;;5034843;28;20412;-63
2023/06/21 09:51:23;;;;;;;11.27;10.37;;;28.00;95.60;;;;;;5053277;28;20170;-63
2023/06/21 09:53:50;;;;;;;12.33;11.53;;;27.80;95.60;;;;;;5052545;28;20153;-63
2023/06/21 09:56:18;;;;;;;11.03;10.30;;;27.80;96.30;;;;;;5052700;28;20436;-63
2023/06/21 09:58:44;;;;;;;11.83;11.03;;;27.80;96.10;;;;;;5048780;28;20416;-63
2023/06/21 10:01:19;;;;;;;11.93;10.97;;;27.90;96.30;;;;;;5053032;28;20440;-63
2023/06/21 10:03:46;;;;;;;10.43;9.60;;;28.00;97.20;;;;;;5052235;28;20396;-63
2023/06/21 10:06:16;;;;;;;11.40;10.40;;;28.10;95.60;;;;;;5053139;28;20408;-63
2023/06/21 10:08:43;;;;;;;10.47;9.77;;;28.00;95.80;;;;;;5052118;28;20392;-63
2023/06/21 10:11:09;;;;;;;9.13;8.53;;;28.00;95.50;;;;;;5052807;28;20422;-63
2023/06/21 10:13:38;;;;;;;9.00;8.43;;;28.00;94.30;;;;;;5052820;28;20400;-61
2023/06/21 10:16:04;;;;;;;11.53;10.07;;;28.10;93.80;;;;;;5053189;28;20412;-64
2023/06/21 10:18:31;;;;;;;9.57;8.87;;;28.20;93.90;;;;;;5052807;28;20879;-63
2023/06/21 10:21:05;;;;;;;9.23;8.63;;;28.30;93.90;;;;;;5052278;28;20448;-63
2023/06/21 10:23:34;;;;;;;11.00;9.97;;;28.30;92.40;;;;;;5024627;28;20927;-63
2023/06/21 10:26:07;;;;;;;9.47;8.80;;;28.30;92.90;;;;;;5041386;28;20919;-63
2023/06/21 10:28:36;;;;;;;9.60;9.00;;;28.30;92.10;;;;;;5032305;28;20381;-63
2023/06/21 10:31:03;;;;;;;10.83;10.13;;;28.30;92.20;;;;;;5046936;28;20432;-63
2023/06/21 10:33:30;;;;;;;9.80;9.10;;;28.40;91.90;;;;;;5039873;28;20424;-63
2023/06/21 10:35:59;;;;;;;8.63;8.03;;;28.40;93.00;;;;;;5047826;28;20998;-63
2023/06/21 10:38:37;;;;;;;9.63;8.73;;;28.50;91.70;;;;;;5051876;28;20900;-63
2023/06/21 10:41:05;;;;;;;9.10;8.50;;;28.60;91.50;;;;;;5050344;28;20479;-63
2023/06/21 10:43:32;;;;;;;9.13;8.10;;;28.80;91.40;;;;;;5051444;28;20397;-63
2023/06/21 10:45:58;;;;;;;8.73;8.07;;;29.00;90.40;;;;;;5052099;28;20411;-63
2023/06/21 10:48:26;;;;;;;8.37;7.70;;;29.00;89.90;;;;;;5051392;28;20428;-63
2023/06/21 10:50:52;;;;;;;8.40;7.90;;;29.00;90.50;;;;;;5050460;28;20860;-63
2023/06/21 10:53:19;;;;;;;8.80;8.20;;;29.20;90.70;;;;;;5052402;28;20400;-63
2023/06/21 10:55:46;;;;;;;11.97;7.83;;;29.20;90.40;;;;;;5047662;28;20470;-62
2023/06/21 10:58:13;;;;;;;9.30;8.70;;;29.40;91.20;;;;;;5032746;28;20420;-63
2023/06/21 11:00:42;;;;;;;9.07;8.27;;;29.40;88.80;;;;;;5045534;28;20923;-62
2023/06/21 11:03:12;;;;;;;9.20;8.30;;;29.40;90.00;;;;;;5051060;28;20424;-63
2023/06/21 11:05:39;;;;;;;8.70;8.07;;;29.50;90.20;;;;;;5051664;28;20385;-62
2023/06/21 11:08:06;;;;;;;9.00;8.20;;;29.50;89.40;;;;;;5050902;28;20908;-63
2023/06/21 11:10:49;;;;;;;10.00;9.10;;;29.40;89.30;;;;;;5055304;28;20451;-63
2023/06/21 11:13:16;;;;;;;8.97;8.27;;;29.30;90.10;;;;;;5056800;28;20393;-63
2023/06/21 11:15:47;;;;;;;9.00;8.40;;;29.10;90.00;;;;;;5052827;28;20511;-62
2023/06/21 11:18:20;;;;;;;8.90;8.10;;;28.90;89.70;;;;;;5055371;28;20432;-63
2023/06/21 11:20:47;;;;;;;9.17;8.57;;;28.70;90.30;;;;;;5054582;28;20475;-62
2023/06/21 11:23:17;;;;;;;8.43;7.50;;;28.50;90.50;;;;;;5056402;28;20499;-63
2023/06/21 11:26:03;;;;;;;8.90;8.20;;;28.30;88.90;;;;;;5053943;28;20427;-62
2023/06/21 11:28:33;;;;;;;8.87;8.07;;;28.10;89.60;;;;;;5054513;28;20750;-63
2023/06/21 11:31:11;;;;;;;7.90;7.23;;;28.10;90.90;;;;;;5055192;28;20412;-63
2023/06/21 11:33:54;;;;;;;8.57;7.87;;;28.10;90.70;;;;;;5035686;28;20791;-63
2023/06/21 11:36:26;;;;;;;9.87;8.97;;;28.30;90.70;;;;;;5051513;28;20989;-63
2023/06/21 11:39:05;;;;;;;12.47;10.23;;;28.50;91.30;;;;;;5053666;28;20456;-62
2023/06/21 11:41:54;;;;;;;10.00;9.10;;;28.70;91.40;;;;;;5055961;28;20440;-63
2023/06/21 11:44:22;;;;;;;9.10;8.37;;;28.80;89.90;;;;;;5024608;28;20859;-63
2023/06/21 11:46:49;;;;;;;9.23;8.50;;;28.90;90.10;;;;;;5048922;28;20424;-63
2023/06/21 11:49:15;;;;;;;10.03;9.23;;;29.00;91.00;;;;;;5053856;28;20905;-63
2023/06/21 11:52:00;;;;;;;9.10;8.50;;;29.20;91.20;;;;;;5055260;28;20436;-61
2023/06/21 11:54:36;;;;;;;9.00;8.40;;;29.40;90.60;;;;;;5054008;28;20538;-63
2023/06/21 11:57:06;;;;;;;9.30;8.53;;;29.50;90.20;;;;;;5053200;28;21037;-63
2023/06/21 11:59:35;;;;;;;8.67;8.07;;;29.70;89.10;;;;;;5055359;28;20416;-63
2023/06/21 12:02:20;;;;;;;9.50;8.83;;;29.80;87.60;;;;;;5032083;28;21376;-63
2023/06/21 12:04:48;;;;;;;9.07;8.47;;;29.90;87.50;;;;;;5037003;28;20428;-61
2023/06/21 12:07:14;;;;;;;9.17;8.57;;;30.00;86.20;;;;;;5040288;28;20477;-63
2023/06/21 12:09:48;;;;;;;8.50;7.80;;;29.90;87.40;;;;;;5055065;28;20412;-63
2023/06/21 12:12:16;;;;;;;8.83;8.13;;;29.90;85.10;;;;;;5037153;28;20920;-63
2023/06/21 12:14:42;;;;;;;10.43;9.67;;;29.90;86.10;;;;;;5039470;28;20420;-61
2023/06/21 12:17:14;;;;;;;8.60;8.00;;;29.90;86.80;;;;;;5054701;28;20459;-63
2023/06/21 12:19:40;;;;;;;7.83;7.33;;;30.00;84.30;;;;;;5053108;28;20182;-63
2023/06/21 12:22:05;;;;;;;23.53;11.00;;;30.10;85.70;;;;;;5051474;28;20560;-63
2023/06/21 12:24:35;;;;;;;8.03;7.03;;;30.20;84.60;;;;;;5050383;28;20190;-62
2023/06/21 12:27:01;;;;;;;7.73;7.13;;;30.20;82.00;;;;;;5052501;28;20247;-63
2023/06/21 12:29:27;;;;;;;7.20;6.70;;;30.30;83.20;;;;;;5053666;28;20911;-63
2023/06/21 12:31:56;;;;;;;7.67;7.13;;;30.40;79.60;;;;;;5052970;28;20272;-63
2023/06/21 12:34:23;;;;;;;7.50;7.00;;;30.40;78.50;;;;;;5054847;28;20396;-63
2023/06/21 12:36:48;;;;;;;7.80;7.30;;;30.40;78.00;;;;;;5052034;28;20416;-62
2023/06/21 12:39:15;;;;;;;8.17;7.67;;;30.50;78.60;;;;;;5051900;28;20452;-63
2023/06/21 12:41:42;;;;;;;8.87;8.23;;;30.40;78.60;;;;;;5053503;28;20300;-63
2023/06/21 12:44:26;;;;;;;8.87;8.10;;;30.30;79.00;;;;;;5050862;28;20468;-63